Time,TemperatureF,DewpointF,PressureIn,WindDirection,WindDirectionDegrees,WindSpeedMPH,WindSpeedGustMPH,Humidity,HourlyPrecipIn,Conditions,Clouds,dailyrainin,SoftwareType,DateUTC
2013-03-21 00:02:00,51.3,51.0,29.75,SE,135,0.0,-999.0,99,-99.99,,,0.00,Acu-Link.com,2013-03-21 04:02:00,
2013-03-21 00:17:00,50.7,50.4,29.74,SW,225,0.0,-999.0,99,-99.99,,,0.00,Acu-Link.com,2013-03-21 04:17:00,
2013-03-21 00:32:00,50.4,50.1,29.74,NW,315,0.0,-999.0,99,-99.99,,,0.00,Acu-Link.com,2013-03-21 04:32:00,
2013-03-21 00:47:00,50.0,49.7,29.74,WNW,292,0.0,-999.0,99,-99.99,,,0.00,Acu-Link.com,2013-03-21 04:47:00,
2013-03-21 01:02:00,49.5,49.2,29.74,SE,135,0.0,-999.0,99,-99.99,,,0.00,Acu-Link.com,2013-03-21 05:02:00,
2013-03-21 01:18:00,49.6,49.4,29.75,NNW,337,0.0,-999.0,99,-99.99,,,0.00,Acu-Link.com,2013-03-21 05:18:00,
2013-03-21 01:33:00,49.5,49.2,29.75,WNW,292,0.0,-999.0,99,-99.99,,,0.00,Acu-Link.com,2013-03-21 05:33:00,
2013-03-21 01:48:00,49.3,49.0,29.75,SW,225,0.0,-999.0,99,-99.99,,,0.00,Acu-Link.com,2013-03-21 05:48:00,
2013-03-21 02:04:00,48.9,48.7,29.74,NW,315,0.0,-999.0,99,-99.99,,,0.00,Acu-Link.com,2013-03-21 06:04:00,
2013-03-21 02:19:00,48.4,48.1,29.74,WNW,292,0.0,-999.0,99,-99.99,,,0.00,Acu-Link.com,2013-03-21 06:19:00,
2013-03-21 02:34:00,47.7,47.4,29.74,NNE,22,1.1,-999.0,99,-99.99,,,0.00,Acu-Link.com,2013-03-21 06:34:00,
2013-03-21 02:49:00,47.1,46.9,29.75,NW,315,1.6,-999.0,99,-99.99,,,0.00,Acu-Link.com,2013-03-21 06:49:00,
2013-03-21 03:05:00,46.8,46.5,29.75,WNW,292,1.6,-999.0,99,-99.99,,,0.00,Acu-Link.com,2013-03-21 07:05:00,
2013-03-21 03:20:00,46.2,46.0,29.74,NW,315,1.1,-999.0,99,-99.99,,,0.00,Acu-Link.com,2013-03-21 07:20:00,
2013-03-21 03:35:00,45.7,45.4,29.75,NNW,337,1.6,-999.0,99,-99.99,,,0.00,Acu-Link.com,2013-03-21 07:35:00,
2013-03-21 03:50:00,45.3,45.1,29.75,West,270,0.0,-999.0,99,-99.99,,,0.00,Acu-Link.com,2013-03-21 07:50:00,
2013-03-21 04:05:00,44.8,44.5,29.74,WNW,292,1.1,-999.0,99,-99.99,,,0.00,Acu-Link.com,2013-03-21 08:05:00,
2013-03-21 04:20:00,44.4,44.2,29.75,WNW,292,1.1,-999.0,99,-99.99,,,0.00,Acu-Link.com,2013-03-21 08:20:00,
2013-03-21 04:51:00,43.3,43.1,29.73,WNW,292,0.0,-999.0,99,-99.99,,,0.00,Acu-Link.com,2013-03-21 08:51:00,
2013-03-21 05:06:00,43.0,42.7,29.73,WNW,292,0.0,-999.0,99,-99.99,,,0.00,Acu-Link.com,2013-03-21 09:06:00,
2013-03-21 05:22:00,42.3,42.0,29.73,WNW,292,1.1,-999.0,99,-99.99,,,0.00,Acu-Link.com,2013-03-21 09:22:00,
2013-03-21 05:37:00,41.9,41.6,29.73,NNW,337,2.2,-999.0,99,-99.99,,,0.00,Acu-Link.com,2013-03-21 09:37:00,
2013-03-21 05:52:00,41.5,41.3,29.74,NNW,337,1.6,-999.0,99,-99.99,,,0.00,Acu-Link.com,2013-03-21 09:52:00,
2013-03-21 06:08:00,41.2,40.9,29.74,North,0,1.6,-999.0,99,-99.99,,,0.00,Acu-Link.com,2013-03-21 10:08:00,
2013-03-21 06:23:00,41.0,40.5,29.75,WNW,292,2.2,-999.0,98,-99.99,,,0.00,Acu-Link.com,2013-03-21 10:23:00,
2013-03-21 06:38:00,41.0,40.2,29.76,NNW,337,1.6,-999.0,97,-99.99,,,0.00,Acu-Link.com,2013-03-21 10:38:00,
2013-03-21 06:53:00,41.0,40.2,29.77,West,270,0.0,-999.0,97,-99.99,,,0.00,Acu-Link.com,2013-03-21 10:53:00,
2013-03-21 07:09:00,40.6,40.1,29.77,NNW,337,0.0,-999.0,98,-99.99,,,0.00,Acu-Link.com,2013-03-21 11:09:00,
2013-03-21 07:24:00,40.6,40.1,29.78,West,270,0.0,-999.0,98,-99.99,,,0.00,Acu-Link.com,2013-03-21 11:24:00,
2013-03-21 07:39:00,39.9,39.4,29.78,SSE,157,0.0,-999.0,98,-99.99,,,0.00,Acu-Link.com,2013-03-21 11:39:00,
2013-03-21 07:55:00,39.6,39.3,29.79,SE,135,0.0,-999.0,99,-99.99,,,0.00,Acu-Link.com,2013-03-21 11:55:00,
2013-03-21 08:10:00,39.7,39.5,29.79,SSE,157,0.0,-999.0,99,-99.99,,,0.00,Acu-Link.com,2013-03-21 12:10:00,
2013-03-21 08:25:00,41.0,40.7,29.80,West,270,1.1,-999.0,99,-99.99,,,0.00,Acu-Link.com,2013-03-21 12:25:00,
2013-03-21 08:41:00,44.1,41.6,29.81,West,270,0.0,-999.0,91,-99.99,,,0.00,Acu-Link.com,2013-03-21 12:41:00,
2013-03-21 09:11:00,48.7,42.9,29.81,ESE,112,1.1,-999.0,80,-99.99,,,0.00,Acu-Link.com,2013-03-21 13:11:00,
2013-03-21 09:26:00,48.7,41.5,29.81,NNW,337,2.2,-999.0,76,-99.99,,,0.00,Acu-Link.com,2013-03-21 13:26:00,
2013-03-21 09:42:00,49.5,39.7,29.81,NNW,337,1.6,-999.0,69,-99.99,,,0.00,Acu-Link.com,2013-03-21 13:42:00,
2013-03-21 09:57:00,50.9,39.6,29.82,West,270,2.7,-999.0,65,-99.99,,,0.00,Acu-Link.com,2013-03-21 13:57:00,
2013-03-21 10:12:00,52.2,40.0,29.82,NNW,337,2.2,-999.0,63,-99.99,,,0.00,Acu-Link.com,2013-03-21 14:12:00,
2013-03-21 10:28:00,53.2,39.7,29.81,West,270,1.6,-999.0,60,-99.99,,,0.00,Acu-Link.com,2013-03-21 14:28:00,
2013-03-21 10:43:00,54.7,40.6,29.82,NNW,337,1.6,-999.0,59,-99.99,,,0.00,Acu-Link.com,2013-03-21 14:43:00,
2013-03-21 10:58:00,55.8,36.9,29.81,NNW,337,2.2,-999.0,49,-99.99,,,0.00,Acu-Link.com,2013-03-21 14:58:00,
2013-03-21 11:13:00,56.7,36.7,29.82,ESE,112,1.1,-999.0,47,-99.99,,,0.00,Acu-Link.com,2013-03-21 15:13:00,
2013-03-21 11:28:00,55.9,34.3,29.82,NW,315,1.6,-999.0,44,-99.99,,,0.00,Acu-Link.com,2013-03-21 15:28:00,
2013-03-21 11:44:00,56.7,35.0,29.82,SW,225,2.7,-999.0,44,-99.99,,,0.00,Acu-Link.com,2013-03-21 15:44:00,
2013-03-21 11:59:00,60.1,34.4,29.81,NE,45,1.6,-999.0,38,-99.99,,,0.00,Acu-Link.com,2013-03-21 15:59:00,
2013-03-21 12:14:00,58.3,32.8,29.82,NNW,337,3.1,-999.0,38,-99.99,,,0.00,Acu-Link.com,2013-03-21 16:14:00,
2013-03-21 12:29:00,61.0,31.7,29.81,SW,225,2.7,-999.0,33,-99.99,,,0.00,Acu-Link.com,2013-03-21 16:29:00,
2013-03-21 12:45:00,59.9,30.0,29.81,NW,315,2.7,-999.0,32,-99.99,,,0.00,Acu-Link.com,2013-03-21 16:45:00,
2013-03-21 13:00:00,60.3,30.3,29.81,SW,225,0.0,-999.0,32,-99.99,,,0.00,Acu-Link.com,2013-03-21 17:00:00,
2013-03-21 13:15:00,60.4,28.9,29.79,West,270,2.7,-999.0,30,-99.99,,,0.00,Acu-Link.com,2013-03-21 17:15:00,
2013-03-21 13:30:00,61.2,31.8,29.79,NW,315,2.2,-999.0,33,-99.99,,,0.00,Acu-Link.com,2013-03-21 17:30:00,
2013-03-21 13:46:00,62.2,30.4,29.78,West,270,1.6,-999.0,30,-99.99,,,0.00,Acu-Link.com,2013-03-21 17:46:00,
2013-03-21 14:01:00,62.2,30.4,29.78,SW,225,1.6,-999.0,30,-99.99,,,0.00,Acu-Link.com,2013-03-21 18:01:00,
2013-03-21 14:16:00,63.0,30.2,29.77,SW,225,3.8,-999.0,29,-99.99,,,0.00,Acu-Link.com,2013-03-21 18:16:00,
2013-03-21 14:32:00,65.3,31.4,29.75,SW,225,2.2,-999.0,28,-99.99,,,0.00,Acu-Link.com,2013-03-21 18:32:00,
2013-03-21 14:47:00,66.2,30.3,29.75,NNW,337,2.2,-999.0,26,-99.99,,,0.00,Acu-Link.com,2013-03-21 18:47:00,
2013-03-21 15:02:00,67.8,30.7,29.74,WNW,292,3.1,-999.0,25,-99.99,,,0.00,Acu-Link.com,2013-03-21 19:02:00,
2013-03-21 15:17:00,67.6,27.4,29.73,NNW,337,6.3,-999.0,22,-99.99,,,0.00,Acu-Link.com,2013-03-21 19:17:00,
2013-03-21 15:32:00,67.6,29.6,29.73,West,270,2.7,-999.0,24,-99.99,,,0.00,Acu-Link.com,2013-03-21 19:32:00,
2013-03-21 15:48:00,69.6,28.0,29.73,NNW,337,2.7,-999.0,21,-99.99,,,0.00,Acu-Link.com,2013-03-21 19:48:00,
2013-03-21 16:03:00,70.9,27.8,29.72,West,270,2.7,-999.0,20,-99.99,,,0.00,Acu-Link.com,2013-03-21 20:03:00,
2013-03-21 16:18:00,66.2,28.3,29.72,SSE,157,3.8,-999.0,24,-99.99,,,0.00,Acu-Link.com,2013-03-21 20:18:00,
2013-03-21 16:33:00,65.8,28.0,29.73,WNW,292,1.6,-999.0,24,-99.99,,,0.00,Acu-Link.com,2013-03-21 20:33:00,
2013-03-21 16:49:00,67.8,27.6,29.72,NW,315,1.1,-999.0,22,-99.99,,,0.00,Acu-Link.com,2013-03-21 20:49:00,
2013-03-21 17:04:00,69.6,29.1,29.72,WNW,292,2.2,-999.0,22,-99.99,,,0.00,Acu-Link.com,2013-03-21 21:04:00,
2013-03-21 17:19:00,69.6,26.8,29.72,NNW,337,3.8,-999.0,20,-99.99,,,0.00,Acu-Link.com,2013-03-21 21:19:00,
2013-03-21 17:35:00,69.3,25.2,29.72,West,270,2.7,-999.0,19,-99.99,,,0.00,Acu-Link.com,2013-03-21 21:35:00,
2013-03-21 17:50:00,67.1,25.9,29.72,WNW,292,3.1,-999.0,21,-99.99,,,0.00,Acu-Link.com,2013-03-21 21:50:00,
2013-03-21 18:05:00,66.4,26.4,29.72,West,270,2.2,-999.0,22,-99.99,,,0.00,Acu-Link.com,2013-03-21 22:05:00,
2013-03-21 18:20:00,65.5,25.6,29.73,NW,315,1.1,-999.0,22,-99.99,,,0.00,Acu-Link.com,2013-03-21 22:20:00,
2013-03-21 18:35:00,65.7,25.8,29.73,WNW,292,2.2,-999.0,22,-99.99,,,0.00,Acu-Link.com,2013-03-21 22:35:00,
2013-03-21 18:50:00,64.9,29.2,29.74,NNE,22,0.0,-999.0,26,-99.99,,,0.00,Acu-Link.com,2013-03-21 22:50:00,
2013-03-21 19:05:00,63.9,28.3,29.73,NNW,337,1.6,-999.0,26,-99.99,,,0.00,Acu-Link.com,2013-03-21 23:05:00,
2013-03-21 19:51:00,59.4,33.8,29.75,ESE,112,0.0,-999.0,38,-99.99,,,0.00,Acu-Link.com,2013-03-21 23:51:00,
2013-03-21 20:07:00,56.7,30.7,29.75,SE,135,0.0,-999.0,37,-99.99,,,0.00,Acu-Link.com,2013-03-22 00:07:00,
2013-03-21 20:22:00,55.2,33.7,29.75,ESE,112,0.0,-999.0,44,-99.99,,,0.00,Acu-Link.com,2013-03-22 00:22:00,
2013-03-21 20:37:00,54.1,35.9,29.75,NW,315,0.0,-999.0,50,-99.99,,,0.00,Acu-Link.com,2013-03-22 00:37:00,
2013-03-21 20:53:00,52.7,36.5,29.76,SSE,157,0.0,-999.0,54,-99.99,,,0.00,Acu-Link.com,2013-03-22 00:53:00,
2013-03-21 21:08:00,51.6,36.9,29.76,ESE,112,0.0,-999.0,57,-99.99,,,0.00,Acu-Link.com,2013-03-22 01:08:00,
2013-03-21 21:23:00,50.5,36.8,29.77,ESE,112,0.0,-999.0,59,-99.99,,,0.00,Acu-Link.com,2013-03-22 01:23:00,
2013-03-21 21:38:00,49.5,38.2,29.78,SE,135,0.0,-999.0,65,-99.99,,,0.00,Acu-Link.com,2013-03-22 01:38:00,
2013-03-21 21:53:00,48.7,38.7,29.78,SSE,157,0.0,-999.0,68,-99.99,,,0.00,Acu-Link.com,2013-03-22 01:53:00,
2013-03-21 22:08:00,47.7,38.4,29.78,SE,135,0.0,-999.0,70,-99.99,,,0.00,Acu-Link.com,2013-03-22 02:08:00,
2013-03-21 22:24:00,46.9,38.0,29.78,East,90,0.0,-999.0,71,-99.99,,,0.00,Acu-Link.com,2013-03-22 02:24:00,
2013-03-21 22:39:00,46.4,38.6,29.79,West,270,0.0,-999.0,74,-99.99,,,0.00,Acu-Link.com,2013-03-22 02:39:00,
2013-03-21 22:54:00,45.7,39.2,29.79,ESE,112,0.0,-999.0,78,-99.99,,,0.00,Acu-Link.com,2013-03-22 02:54:00,
2013-03-21 23:10:00,45.1,39.7,29.79,ESE,112,0.0,-999.0,81,-99.99,,,0.00,Acu-Link.com,2013-03-22 03:10:00,
2013-03-21 23:25:00,44.4,39.3,29.80,SE,135,0.0,-999.0,82,-99.99,,,0.00,Acu-Link.com,2013-03-22 03:25:00,
2013-03-21 23:40:00,43.9,39.1,29.80,SSE,157,0.0,-999.0,83,-99.99,,,0.00,Acu-Link.com,2013-03-22 03:40:00,
2013-03-21 23:55:00,43.5,39.6,29.81,ESE,112,0.0,-999.0,86,-99.99,,,0.00,Acu-Link.com,2013-03-22 03:55:00,